sensor_id;sensor_type;location;lat;lon;timestamp;temperature;humidity
46231;DHT22;31949;51.404;-0.038;2023-07-31T00:00:05;17.40;99.90
46231;DHT22;31949;51.404;-0.038;2023-07-31T00:02:33;17.30;99.90
46231;DHT22;31949;51.404;-0.038;2023-07-31T00:05:01;17.30;99.90
46231;DHT22;31949;51.404;-0.038;2023-07-31T00:07:28;17.20;99.90
46231;DHT22;31949;51.404;-0.038;2023-07-31T00:09:55;17.20;99.90
46231;DHT22;31949;51.404;-0.038;2023-07-31T00:12:24;17.20;99.90
46231;DHT22;31949;51.404;-0.038;2023-07-31T00:14:51;17.20;99.90
46231;DHT22;31949;51.404;-0.038;2023-07-31T00:17:18;17.10;99.90
46231;DHT22;31949;51.404;-0.038;2023-07-31T00:19:45;17.10;99.90
46231;DHT22;31949;51.404;-0.038;2023-07-31T00:22:17;17.10;99.90
46231;DHT22;31949;51.404;-0.038;2023-07-31T00:24:44;17.10;99.90
46231;DHT22;31949;51.404;-0.038;2023-07-31T00:27:12;17.10;99.90
46231;DHT22;31949;51.404;-0.038;2023-07-31T00:29:39;17.10;99.90
46231;DHT22;31949;51.404;-0.038;2023-07-31T00:32:06;17.10;99.90
46231;DHT22;31949;51.404;-0.038;2023-07-31T00:34:37;17.00;99.90
46231;DHT22;31949;51.404;-0.038;2023-07-31T00:37:04;17.10;99.90
46231;DHT22;31949;51.404;-0.038;2023-07-31T00:39:34;17.10;99.90
46231;DHT22;31949;51.404;-0.038;2023-07-31T00:42:02;17.10;99.90
46231;DHT22;31949;51.404;-0.038;2023-07-31T00:44:29;17.20;99.90
46231;DHT22;31949;51.404;-0.038;2023-07-31T00:46:58;17.10;99.90
46231;DHT22;31949;51.404;-0.038;2023-07-31T00:49:26;17.10;99.90
46231;DHT22;31949;51.404;-0.038;2023-07-31T00:51:55;17.20;99.90
46231;DHT22;31949;51.404;-0.038;2023-07-31T00:54:25;17.20;99.90
46231;DHT22;31949;51.404;-0.038;2023-07-31T00:56:53;17.20;99.90
46231;DHT22;31949;51.404;-0.038;2023-07-31T00:59:21;17.20;99.90
46231;DHT22;31949;51.404;-0.038;2023-07-31T01:01:49;17.20;99.90
46231;DHT22;31949;51.404;-0.038;2023-07-31T01:04:18;17.20;99.90
46231;DHT22;31949;51.404;-0.038;2023-07-31T01:07:11;17.20;99.90
46231;DHT22;31949;51.404;-0.038;2023-07-31T01:12:16;17.20;99.90
46231;DHT22;31949;51.404;-0.038;2023-07-31T01:15:10;17.30;99.90
46231;DHT22;31949;51.404;-0.038;2023-07-31T01:17:42;17.30;99.90
46231;DHT22;31949;51.404;-0.038;2023-07-31T01:20:22;17.30;99.90
46231;DHT22;31949;51.404;-0.038;2023-07-31T01:23:34;17.30;99.90
46231;DHT22;31949;51.404;-0.038;2023-07-31T01:26:08;17.30;99.90
46231;DHT22;31949;51.404;-0.038;2023-07-31T01:31:21;17.30;99.90
46231;DHT22;31949;51.404;-0.038;2023-07-31T01:33:56;17.30;99.90
46231;DHT22;31949;51.404;-0.038;2023-07-31T01:36:23;17.40;99.90
46231;DHT22;31949;51.404;-0.038;2023-07-31T01:38:51;17.40;99.90
46231;DHT22;31949;51.404;-0.038;2023-07-31T01:41:18;17.40;99.90
46231;DHT22;31949;51.404;-0.038;2023-07-31T01:43:46;17.40;99.90
46231;DHT22;31949;51.404;-0.038;2023-07-31T01:46:13;17.40;99.90
46231;DHT22;31949;51.404;-0.038;2023-07-31T01:48:41;17.40;99.90
46231;DHT22;31949;51.404;-0.038;2023-07-31T01:51:08;17.40;99.90
46231;DHT22;31949;51.404;-0.038;2023-07-31T01:53:35;17.40;99.90
46231;DHT22;31949;51.404;-0.038;2023-07-31T01:56:03;17.40;99.90
46231;DHT22;31949;51.404;-0.038;2023-07-31T01:58:31;17.40;99.90
46231;DHT22;31949;51.404;-0.038;2023-07-31T02:00:58;17.50;99.90
46231;DHT22;31949;51.404;-0.038;2023-07-31T02:03:26;17.50;99.90
46231;DHT22;31949;51.404;-0.038;2023-07-31T02:05:54;17.50;99.90
46231;DHT22;31949;51.404;-0.038;2023-07-31T02:08:21;17.50;99.90
46231;DHT22;31949;51.404;-0.038;2023-07-31T02:10:48;17.40;99.90
46231;DHT22;31949;51.404;-0.038;2023-07-31T02:13:15;17.50;99.90
46231;DHT22;31949;51.404;-0.038;2023-07-31T02:15:43;17.50;99.90
46231;DHT22;31949;51.404;-0.038;2023-07-31T02:18:10;17.50;99.90
46231;DHT22;31949;51.404;-0.038;2023-07-31T02:20:37;17.50;99.90
46231;DHT22;31949;51.404;-0.038;2023-07-31T02:23:04;17.50;99.90
46231;DHT22;31949;51.404;-0.038;2023-07-31T02:25:32;17.60;99.90
46231;DHT22;31949;51.404;-0.038;2023-07-31T02:27:59;17.60;99.90
46231;DHT22;31949;51.404;-0.038;2023-07-31T02:30:26;17.60;99.90
46231;DHT22;31949;51.404;-0.038;2023-07-31T02:32:53;17.60;99.90
46231;DHT22;31949;51.404;-0.038;2023-07-31T02:35:21;17.60;99.90
46231;DHT22;31949;51.404;-0.038;2023-07-31T02:37:48;17.60;99.90
46231;DHT22;31949;51.404;-0.038;2023-07-31T02:40:15;17.60;99.90
46231;DHT22;31949;51.404;-0.038;2023-07-31T02:42:42;17.60;99.90
46231;DHT22;31949;51.404;-0.038;2023-07-31T02:45:11;17.60;99.90
46231;DHT22;31949;51.404;-0.038;2023-07-31T02:47:38;17.60;99.90
46231;DHT22;31949;51.404;-0.038;2023-07-31T02:50:06;17.60;99.90
46231;DHT22;31949;51.404;-0.038;2023-07-31T02:52:33;17.60;99.90
46231;DHT22;31949;51.404;-0.038;2023-07-31T02:55:01;17.70;99.90
46231;DHT22;31949;51.404;-0.038;2023-07-31T02:57:28;17.70;99.90
46231;DHT22;31949;51.404;-0.038;2023-07-31T02:59:55;17.60;99.90
46231;DHT22;31949;51.404;-0.038;2023-07-31T03:02:22;17.60;99.90
46231;DHT22;31949;51.404;-0.038;2023-07-31T03:04:50;17.60;99.90
46231;DHT22;31949;51.404;-0.038;2023-07-31T03:07:17;17.60;99.90
46231;DHT22;31949;51.404;-0.038;2023-07-31T03:09:44;17.60;99.90
46231;DHT22;31949;51.404;-0.038;2023-07-31T03:12:12;17.70;99.90
46231;DHT22;31949;51.404;-0.038;2023-07-31T03:14:39;17.70;99.90
46231;DHT22;31949;51.404;-0.038;2023-07-31T03:17:06;17.70;99.90
46231;DHT22;31949;51.404;-0.038;2023-07-31T03:19:33;17.70;99.90
46231;DHT22;31949;51.404;-0.038;2023-07-31T03:22:01;17.80;99.90
46231;DHT22;31949;51.404;-0.038;2023-07-31T03:24:28;17.70;99.90
46231;DHT22;31949;51.404;-0.038;2023-07-31T03:26:56;17.80;99.90
46231;DHT22;31949;51.404;-0.038;2023-07-31T03:29:23;17.90;99.90
46231;DHT22;31949;51.404;-0.038;2023-07-31T03:31:52;17.80;99.90
46231;DHT22;31949;51.404;-0.038;2023-07-31T03:34:19;17.80;99.90
46231;DHT22;31949;51.404;-0.038;2023-07-31T03:36:46;17.90;99.90
46231;DHT22;31949;51.404;-0.038;2023-07-31T03:39:13;17.80;99.90
46231;DHT22;31949;51.404;-0.038;2023-07-31T03:41:40;17.90;99.90
46231;DHT22;31949;51.404;-0.038;2023-07-31T03:44:08;17.90;99.90
46231;DHT22;31949;51.404;-0.038;2023-07-31T03:46:36;17.90;99.90
46231;DHT22;31949;51.404;-0.038;2023-07-31T03:49:04;17.90;99.90
46231;DHT22;31949;51.404;-0.038;2023-07-31T03:51:31;17.90;99.90
46231;DHT22;31949;51.404;-0.038;2023-07-31T03:53:58;17.90;99.90
46231;DHT22;31949;51.404;-0.038;2023-07-31T03:56:25;17.90;99.90
46231;DHT22;31949;51.404;-0.038;2023-07-31T03:58:53;18.00;99.90
46231;DHT22;31949;51.404;-0.038;2023-07-31T04:01:20;18.00;99.90
46231;DHT22;31949;51.404;-0.038;2023-07-31T04:03:47;18.00;99.90
46231;DHT22;31949;51.404;-0.038;2023-07-31T04:06:14;18.00;99.90
46231;DHT22;31949;51.404;-0.038;2023-07-31T04:08:45;18.00;99.90
46231;DHT22;31949;51.404;-0.038;2023-07-31T04:11:12;18.00;99.90
46231;DHT22;31949;51.404;-0.038;2023-07-31T04:13:39;18.00;99.90
46231;DHT22;31949;51.404;-0.038;2023-07-31T04:16:06;18.00;99.90
46231;DHT22;31949;51.404;-0.038;2023-07-31T04:18:34;18.00;99.90
46231;DHT22;31949;51.404;-0.038;2023-07-31T04:21:01;18.00;99.90
46231;DHT22;31949;51.404;-0.038;2023-07-31T04:23:29;18.00;99.90
46231;DHT22;31949;51.404;-0.038;2023-07-31T04:25:56;18.10;99.90
46231;DHT22;31949;51.404;-0.038;2023-07-31T04:28:24;18.10;99.90
46231;DHT22;31949;51.404;-0.038;2023-07-31T04:30:53;18.00;99.90
46231;DHT22;31949;51.404;-0.038;2023-07-31T04:33:20;18.10;99.90
46231;DHT22;31949;51.404;-0.038;2023-07-31T04:35:51;18.10;99.90
46231;DHT22;31949;51.404;-0.038;2023-07-31T04:38:22;18.10;99.90
46231;DHT22;31949;51.404;-0.038;2023-07-31T04:40:49;18.10;99.90
46231;DHT22;31949;51.404;-0.038;2023-07-31T04:43:17;18.20;99.90
46231;DHT22;31949;51.404;-0.038;2023-07-31T04:45:47;18.20;99.90
46231;DHT22;31949;51.404;-0.038;2023-07-31T04:48:15;18.10;99.90
46231;DHT22;31949;51.404;-0.038;2023-07-31T04:50:42;18.20;99.90
46231;DHT22;31949;51.404;-0.038;2023-07-31T04:53:09;18.10;99.90
46231;DHT22;31949;51.404;-0.038;2023-07-31T04:55:36;18.20;99.90
46231;DHT22;31949;51.404;-0.038;2023-07-31T04:58:04;18.20;99.90
46231;DHT22;31949;51.404;-0.038;2023-07-31T05:00:31;18.20;99.90
46231;DHT22;31949;51.404;-0.038;2023-07-31T05:02:58;18.20;99.90
46231;DHT22;31949;51.404;-0.038;2023-07-31T05:05:25;18.20;99.90
46231;DHT22;31949;51.404;-0.038;2023-07-31T05:07:53;18.20;99.90
46231;DHT22;31949;51.404;-0.038;2023-07-31T05:10:20;18.20;99.90
46231;DHT22;31949;51.404;-0.038;2023-07-31T05:12:47;18.20;99.90
46231;DHT22;31949;51.404;-0.038;2023-07-31T05:15:15;18.20;99.90
46231;DHT22;31949;51.404;-0.038;2023-07-31T05:17:42;18.30;99.90
46231;DHT22;31949;51.404;-0.038;2023-07-31T05:20:10;18.30;99.90
46231;DHT22;31949;51.404;-0.038;2023-07-31T05:22:37;18.20;99.90
46231;DHT22;31949;51.404;-0.038;2023-07-31T05:25:05;18.30;99.90
46231;DHT22;31949;51.404;-0.038;2023-07-31T05:27:32;18.30;99.90
46231;DHT22;31949;51.404;-0.038;2023-07-31T05:29:59;18.30;99.90
46231;DHT22;31949;51.404;-0.038;2023-07-31T05:32:27;18.30;99.90
46231;DHT22;31949;51.404;-0.038;2023-07-31T05:34:55;18.30;99.90
46231;DHT22;31949;51.404;-0.038;2023-07-31T05:37:22;18.40;99.90
46231;DHT22;31949;51.404;-0.038;2023-07-31T05:39:49;18.40;99.90
46231;DHT22;31949;51.404;-0.038;2023-07-31T05:42:17;18.40;99.90
46231;DHT22;31949;51.404;-0.038;2023-07-31T05:44:45;18.40;99.90
46231;DHT22;31949;51.404;-0.038;2023-07-31T05:47:12;18.40;99.90
46231;DHT22;31949;51.404;-0.038;2023-07-31T05:49:39;18.50;99.90
46231;DHT22;31949;51.404;-0.038;2023-07-31T05:52:06;18.50;99.90
46231;DHT22;31949;51.404;-0.038;2023-07-31T05:54:37;18.50;99.90
46231;DHT22;31949;51.404;-0.038;2023-07-31T05:57:04;18.60;99.90
46231;DHT22;31949;51.404;-0.038;2023-07-31T05:59:31;18.60;99.90
46231;DHT22;31949;51.404;-0.038;2023-07-31T06:02:00;18.70;99.90
46231;DHT22;31949;51.404;-0.038;2023-07-31T06:04:27;18.70;99.90
46231;DHT22;31949;51.404;-0.038;2023-07-31T06:06:55;18.70;99.90
46231;DHT22;31949;51.404;-0.038;2023-07-31T06:09:23;18.70;99.90
46231;DHT22;31949;51.404;-0.038;2023-07-31T06:11:50;18.70;99.90
46231;DHT22;31949;51.404;-0.038;2023-07-31T06:14:17;18.70;99.90
46231;DHT22;31949;51.404;-0.038;2023-07-31T06:16:45;18.80;99.90
46231;DHT22;31949;51.404;-0.038;2023-07-31T06:19:12;18.80;99.90
46231;DHT22;31949;51.404;-0.038;2023-07-31T06:21:39;18.80;99.90
46231;DHT22;31949;51.404;-0.038;2023-07-31T06:24:09;18.90;99.90
46231;DHT22;31949;51.404;-0.038;2023-07-31T06:26:36;18.90;99.90
46231;DHT22;31949;51.404;-0.038;2023-07-31T06:29:04;18.90;99.90
46231;DHT22;31949;51.404;-0.038;2023-07-31T06:31:31;18.90;99.90
46231;DHT22;31949;51.404;-0.038;2023-07-31T06:33:59;18.80;99.90
46231;DHT22;31949;51.404;-0.038;2023-07-31T06:36:26;18.90;99.90
46231;DHT22;31949;51.404;-0.038;2023-07-31T06:38:53;19.00;99.90
46231;DHT22;31949;51.404;-0.038;2023-07-31T06:41:21;19.00;99.90
46231;DHT22;31949;51.404;-0.038;2023-07-31T06:43:48;19.10;99.90
46231;DHT22;31949;51.404;-0.038;2023-07-31T06:46:15;19.10;99.90
46231;DHT22;31949;51.404;-0.038;2023-07-31T06:48:42;19.10;99.90
46231;DHT22;31949;51.404;-0.038;2023-07-31T06:51:09;19.20;99.90
46231;DHT22;31949;51.404;-0.038;2023-07-31T06:53:37;19.20;99.90
46231;DHT22;31949;51.404;-0.038;2023-07-31T06:56:04;19.20;99.90
46231;DHT22;31949;51.404;-0.038;2023-07-31T06:58:31;19.30;99.90
46231;DHT22;31949;51.404;-0.038;2023-07-31T07:00:58;19.20;99.90
46231;DHT22;31949;51.404;-0.038;2023-07-31T07:03:26;19.20;99.90
46231;DHT22;31949;51.404;-0.038;2023-07-31T07:05:53;19.20;99.90
46231;DHT22;31949;51.404;-0.038;2023-07-31T07:08:20;19.30;99.90
46231;DHT22;31949;51.404;-0.038;2023-07-31T07:10:49;19.30;99.90
46231;DHT22;31949;51.404;-0.038;2023-07-31T07:13:16;19.40;99.90
46231;DHT22;31949;51.404;-0.038;2023-07-31T07:15:49;19.40;99.90
46231;DHT22;31949;51.404;-0.038;2023-07-31T07:18:17;19.50;99.90
46231;DHT22;31949;51.404;-0.038;2023-07-31T07:20:51;19.50;99.90
46231;DHT22;31949;51.404;-0.038;2023-07-31T07:23:19;19.50;99.90
46231;DHT22;31949;51.404;-0.038;2023-07-31T07:25:47;19.50;99.90
46231;DHT22;31949;51.404;-0.038;2023-07-31T07:28:15;19.50;99.90
46231;DHT22;31949;51.404;-0.038;2023-07-31T07:30:42;19.50;99.90
46231;DHT22;31949;51.404;-0.038;2023-07-31T07:33:09;19.50;99.90
46231;DHT22;31949;51.404;-0.038;2023-07-31T07:35:37;19.50;99.90
46231;DHT22;31949;51.404;-0.038;2023-07-31T07:38:04;19.50;99.90
46231;DHT22;31949;51.404;-0.038;2023-07-31T07:40:31;19.60;99.90
46231;DHT22;31949;51.404;-0.038;2023-07-31T07:42:58;19.60;99.90
46231;DHT22;31949;51.404;-0.038;2023-07-31T07:45:27;19.60;99.90
46231;DHT22;31949;51.404;-0.038;2023-07-31T07:47:54;19.60;99.90
46231;DHT22;31949;51.404;-0.038;2023-07-31T07:50:22;19.80;99.90
46231;DHT22;31949;51.404;-0.038;2023-07-31T07:52:49;19.80;99.90
46231;DHT22;31949;51.404;-0.038;2023-07-31T07:55:16;19.80;99.90
46231;DHT22;31949;51.404;-0.038;2023-07-31T07:57:44;19.90;99.90
46231;DHT22;31949;51.404;-0.038;2023-07-31T08:00:12;19.90;99.90
46231;DHT22;31949;51.404;-0.038;2023-07-31T08:02:40;19.90;99.90
46231;DHT22;31949;51.404;-0.038;2023-07-31T08:05:08;20.00;99.90
46231;DHT22;31949;51.404;-0.038;2023-07-31T08:07:35;20.10;99.90
46231;DHT22;31949;51.404;-0.038;2023-07-31T08:10:03;20.10;99.90
46231;DHT22;31949;51.404;-0.038;2023-07-31T08:12:30;20.20;99.90
46231;DHT22;31949;51.404;-0.038;2023-07-31T08:14:58;20.20;99.90
46231;DHT22;31949;51.404;-0.038;2023-07-31T08:17:28;20.10;99.90
46231;DHT22;31949;51.404;-0.038;2023-07-31T08:19:55;20.00;99.90
46231;DHT22;31949;51.404;-0.038;2023-07-31T08:22:25;20.10;99.90
46231;DHT22;31949;51.404;-0.038;2023-07-31T08:24:52;19.90;99.90
46231;DHT22;31949;51.404;-0.038;2023-07-31T08:27:20;20.00;99.90
46231;DHT22;31949;51.404;-0.038;2023-07-31T08:29:47;20.00;99.90
46231;DHT22;31949;51.404;-0.038;2023-07-31T08:32:15;20.20;99.90
46231;DHT22;31949;51.404;-0.038;2023-07-31T08:34:42;20.20;99.90
46231;DHT22;31949;51.404;-0.038;2023-07-31T08:37:09;20.40;99.90
46231;DHT22;31949;51.404;-0.038;2023-07-31T08:39:38;20.40;99.90
46231;DHT22;31949;51.404;-0.038;2023-07-31T08:42:09;20.40;99.90
46231;DHT22;31949;51.404;-0.038;2023-07-31T08:44:37;20.50;99.90
46231;DHT22;31949;51.404;-0.038;2023-07-31T08:47:06;20.50;99.90
46231;DHT22;31949;51.404;-0.038;2023-07-31T08:49:34;20.50;99.90
46231;DHT22;31949;51.404;-0.038;2023-07-31T08:52:01;20.50;99.90
46231;DHT22;31949;51.404;-0.038;2023-07-31T08:54:29;20.60;99.90
46231;DHT22;31949;51.404;-0.038;2023-07-31T08:56:58;20.60;99.90
46231;DHT22;31949;51.404;-0.038;2023-07-31T08:59:31;20.60;99.90
46231;DHT22;31949;51.404;-0.038;2023-07-31T09:02:05;20.70;99.90
46231;DHT22;31949;51.404;-0.038;2023-07-31T09:04:33;20.60;99.90
46231;DHT22;31949;51.404;-0.038;2023-07-31T09:07:02;20.70;99.90
46231;DHT22;31949;51.404;-0.038;2023-07-31T09:09:31;20.70;99.90
46231;DHT22;31949;51.404;-0.038;2023-07-31T09:11:59;20.60;99.90
46231;DHT22;31949;51.404;-0.038;2023-07-31T09:14:26;20.60;99.90
46231;DHT22;31949;51.404;-0.038;2023-07-31T09:16:57;20.50;99.90
46231;DHT22;31949;51.404;-0.038;2023-07-31T09:19:34;20.50;99.90
46231;DHT22;31949;51.404;-0.038;2023-07-31T09:22:07;20.50;99.90
46231;DHT22;31949;51.404;-0.038;2023-07-31T09:24:34;20.60;99.90
46231;DHT22;31949;51.404;-0.038;2023-07-31T09:27:02;20.60;99.90
46231;DHT22;31949;51.404;-0.038;2023-07-31T09:29:29;20.50;99.90
46231;DHT22;31949;51.404;-0.038;2023-07-31T09:31:57;20.60;99.90
46231;DHT22;31949;51.404;-0.038;2023-07-31T09:34:52;20.60;99.90
46231;DHT22;31949;51.404;-0.038;2023-07-31T09:37:19;20.60;99.90
46231;DHT22;31949;51.404;-0.038;2023-07-31T09:39:47;20.60;99.90
46231;DHT22;31949;51.404;-0.038;2023-07-31T09:42:24;20.60;99.90
46231;DHT22;31949;51.404;-0.038;2023-07-31T09:44:52;20.70;99.90
46231;DHT22;31949;51.404;-0.038;2023-07-31T09:47:23;20.60;99.90
46231;DHT22;31949;51.404;-0.038;2023-07-31T09:49:52;20.70;99.90
46231;DHT22;31949;51.404;-0.038;2023-07-31T09:52:20;20.60;99.90
46231;DHT22;31949;51.404;-0.038;2023-07-31T09:54:47;20.70;99.90
46231;DHT22;31949;51.404;-0.038;2023-07-31T09:57:17;20.70;99.90
46231;DHT22;31949;51.404;-0.038;2023-07-31T09:59:47;20.80;99.90
46231;DHT22;31949;51.404;-0.038;2023-07-31T10:02:20;20.80;99.90
46231;DHT22;31949;51.404;-0.038;2023-07-31T10:04:50;20.90;99.90
46231;DHT22;31949;51.404;-0.038;2023-07-31T10:07:18;21.10;99.90
46231;DHT22;31949;51.404;-0.038;2023-07-31T10:09:47;21.20;99.90
46231;DHT22;31949;51.404;-0.038;2023-07-31T10:12:19;21.30;99.90
46231;DHT22;31949;51.404;-0.038;2023-07-31T10:14:48;21.50;99.90
46231;DHT22;31949;51.404;-0.038;2023-07-31T10:17:15;21.50;99.90
46231;DHT22;31949;51.404;-0.038;2023-07-31T10:19:44;21.50;99.90
46231;DHT22;31949;51.404;-0.038;2023-07-31T10:22:14;21.60;99.90
46231;DHT22;31949;51.404;-0.038;2023-07-31T10:24:46;21.60;99.90
46231;DHT22;31949;51.404;-0.038;2023-07-31T10:27:13;21.50;99.90
46231;DHT22;31949;51.404;-0.038;2023-07-31T10:29:42;21.50;99.90
46231;DHT22;31949;51.404;-0.038;2023-07-31T10:32:11;21.50;99.90
46231;DHT22;31949;51.404;-0.038;2023-07-31T10:34:40;21.40;99.90
46231;DHT22;31949;51.404;-0.038;2023-07-31T10:37:25;21.40;99.90
46231;DHT22;31949;51.404;-0.038;2023-07-31T10:40:00;21.60;99.90
46231;DHT22;31949;51.404;-0.038;2023-07-31T10:47:59;21.90;99.90
46231;DHT22;31949;51.404;-0.038;2023-07-31T10:50:32;21.90;99.90
46231;DHT22;31949;51.404;-0.038;2023-07-31T10:53:02;21.90;99.90
46231;DHT22;31949;51.404;-0.038;2023-07-31T10:55:40;21.80;99.90
46231;DHT22;31949;51.404;-0.038;2023-07-31T10:58:10;21.90;99.90
46231;DHT22;31949;51.404;-0.038;2023-07-31T11:00:39;21.90;99.90
46231;DHT22;31949;51.404;-0.038;2023-07-31T11:03:09;21.90;99.90
46231;DHT22;31949;51.404;-0.038;2023-07-31T11:08:20;21.90;99.90
46231;DHT22;31949;51.404;-0.038;2023-07-31T11:13:31;21.80;99.90
46231;DHT22;31949;51.404;-0.038;2023-07-31T11:15:59;21.80;99.90
46231;DHT22;31949;51.404;-0.038;2023-07-31T11:18:27;21.80;99.90
46231;DHT22;31949;51.404;-0.038;2023-07-31T11:20:54;21.80;99.90
46231;DHT22;31949;51.404;-0.038;2023-07-31T11:23:22;21.80;99.90
46231;DHT22;31949;51.404;-0.038;2023-07-31T11:25:50;21.80;99.90
46231;DHT22;31949;51.404;-0.038;2023-07-31T11:28:19;21.80;99.90
46231;DHT22;31949;51.404;-0.038;2023-07-31T11:30:46;21.80;99.90
46231;DHT22;31949;51.404;-0.038;2023-07-31T11:33:14;21.90;99.90
46231;DHT22;31949;51.404;-0.038;2023-07-31T11:35:47;22.10;99.90
46231;DHT22;31949;51.404;-0.038;2023-07-31T11:38:29;22.20;99.90
46231;DHT22;31949;51.404;-0.038;2023-07-31T11:41:03;22.20;99.90
46231;DHT22;31949;51.404;-0.038;2023-07-31T11:43:34;22.10;99.90
46231;DHT22;31949;51.404;-0.038;2023-07-31T11:46:03;22.10;99.90
46231;DHT22;31949;51.404;-0.038;2023-07-31T11:48:33;22.00;99.90
46231;DHT22;31949;51.404;-0.038;2023-07-31T11:51:03;22.00;99.90
46231;DHT22;31949;51.404;-0.038;2023-07-31T11:53:38;22.00;99.90
46231;DHT22;31949;51.404;-0.038;2023-07-31T11:56:06;21.90;99.90
46231;DHT22;31949;51.404;-0.038;2023-07-31T11:58:35;21.80;99.90
46231;DHT22;31949;51.404;-0.038;2023-07-31T12:01:03;21.90;99.90
46231;DHT22;31949;51.404;-0.038;2023-07-31T12:03:31;21.90;99.90
46231;DHT22;31949;51.404;-0.038;2023-07-31T12:05:59;21.90;99.90
46231;DHT22;31949;51.404;-0.038;2023-07-31T12:08:27;21.80;99.90
46231;DHT22;31949;51.404;-0.038;2023-07-31T12:11:05;21.80;99.90
46231;DHT22;31949;51.404;-0.038;2023-07-31T12:13:33;21.80;99.90
46231;DHT22;31949;51.404;-0.038;2023-07-31T12:16:01;21.80;99.90
46231;DHT22;31949;51.404;-0.038;2023-07-31T12:18:34;21.70;99.90
46231;DHT22;31949;51.404;-0.038;2023-07-31T12:21:06;21.70;99.90
46231;DHT22;31949;51.404;-0.038;2023-07-31T12:23:35;21.60;99.90
46231;DHT22;31949;51.404;-0.038;2023-07-31T12:26:14;21.40;99.90
46231;DHT22;31949;51.404;-0.038;2023-07-31T12:31:11;21.30;99.90
46231;DHT22;31949;51.404;-0.038;2023-07-31T12:33:40;21.20;99.90
46231;DHT22;31949;51.404;-0.038;2023-07-31T12:36:16;21.20;99.90
46231;DHT22;31949;51.404;-0.038;2023-07-31T12:38:44;21.10;99.90
46231;DHT22;31949;51.404;-0.038;2023-07-31T12:41:12;21.00;99.90
46231;DHT22;31949;51.404;-0.038;2023-07-31T12:43:41;21.00;99.90
46231;DHT22;31949;51.404;-0.038;2023-07-31T12:46:08;21.00;99.90
46231;DHT22;31949;51.404;-0.038;2023-07-31T12:48:37;20.90;99.90
46231;DHT22;31949;51.404;-0.038;2023-07-31T12:51:05;20.90;99.90
46231;DHT22;31949;51.404;-0.038;2023-07-31T12:53:34;20.90;99.90
46231;DHT22;31949;51.404;-0.038;2023-07-31T12:56:01;20.90;99.90
46231;DHT22;31949;51.404;-0.038;2023-07-31T12:58:29;20.90;99.90
46231;DHT22;31949;51.404;-0.038;2023-07-31T13:00:56;20.70;99.90
46231;DHT22;31949;51.404;-0.038;2023-07-31T13:03:24;20.60;99.90
46231;DHT22;31949;51.404;-0.038;2023-07-31T13:05:51;20.60;99.90
46231;DHT22;31949;51.404;-0.038;2023-07-31T13:08:19;20.70;99.90
46231;DHT22;31949;51.404;-0.038;2023-07-31T13:10:47;20.50;99.90
46231;DHT22;31949;51.404;-0.038;2023-07-31T13:13:14;20.40;99.90
46231;DHT22;31949;51.404;-0.038;2023-07-31T13:15:41;20.20;99.90
46231;DHT22;31949;51.404;-0.038;2023-07-31T13:18:09;20.00;99.90
46231;DHT22;31949;51.404;-0.038;2023-07-31T13:20:43;19.90;99.90
46231;DHT22;31949;51.404;-0.038;2023-07-31T13:23:10;19.80;99.90
46231;DHT22;31949;51.404;-0.038;2023-07-31T13:25:37;19.80;99.90
46231;DHT22;31949;51.404;-0.038;2023-07-31T13:28:05;19.70;99.90
46231;DHT22;31949;51.404;-0.038;2023-07-31T13:30:32;19.60;99.90
46231;DHT22;31949;51.404;-0.038;2023-07-31T13:32:59;19.50;99.90
46231;DHT22;31949;51.404;-0.038;2023-07-31T13:35:27;19.50;99.90
46231;DHT22;31949;51.404;-0.038;2023-07-31T13:37:54;19.50;99.90
46231;DHT22;31949;51.404;-0.038;2023-07-31T13:40:21;19.30;99.90
46231;DHT22;31949;51.404;-0.038;2023-07-31T13:42:49;19.40;99.90
46231;DHT22;31949;51.404;-0.038;2023-07-31T13:45:16;19.30;99.90
46231;DHT22;31949;51.404;-0.038;2023-07-31T13:47:43;19.20;99.90
46231;DHT22;31949;51.404;-0.038;2023-07-31T13:50:11;19.20;99.90
46231;DHT22;31949;51.404;-0.038;2023-07-31T13:52:38;19.10;99.90
46231;DHT22;31949;51.404;-0.038;2023-07-31T13:55:05;19.10;99.90
46231;DHT22;31949;51.404;-0.038;2023-07-31T13:57:33;19.00;99.90
46231;DHT22;31949;51.404;-0.038;2023-07-31T14:00:00;18.90;99.90
46231;DHT22;31949;51.404;-0.038;2023-07-31T14:02:31;18.90;99.90
46231;DHT22;31949;51.404;-0.038;2023-07-31T14:04:58;18.80;99.90
46231;DHT22;31949;51.404;-0.038;2023-07-31T14:07:25;18.80;99.90
46231;DHT22;31949;51.404;-0.038;2023-07-31T14:09:52;18.80;99.90
46231;DHT22;31949;51.404;-0.038;2023-07-31T14:12:20;18.70;99.90
46231;DHT22;31949;51.404;-0.038;2023-07-31T14:15:07;18.60;99.90
46231;DHT22;31949;51.404;-0.038;2023-07-31T14:17:35;18.60;99.90
46231;DHT22;31949;51.404;-0.038;2023-07-31T14:20:03;18.50;99.90
46231;DHT22;31949;51.404;-0.038;2023-07-31T14:22:31;18.50;99.90
46231;DHT22;31949;51.404;-0.038;2023-07-31T14:25:01;18.50;99.90
46231;DHT22;31949;51.404;-0.038;2023-07-31T14:27:28;18.40;99.90
46231;DHT22;31949;51.404;-0.038;2023-07-31T14:29:55;18.40;99.90
46231;DHT22;31949;51.404;-0.038;2023-07-31T14:32:23;18.40;99.90
46231;DHT22;31949;51.404;-0.038;2023-07-31T14:34:52;18.40;99.90
46231;DHT22;31949;51.404;-0.038;2023-07-31T14:37:21;18.40;99.90
46231;DHT22;31949;51.404;-0.038;2023-07-31T14:39:48;18.40;99.90
46231;DHT22;31949;51.404;-0.038;2023-07-31T14:42:16;18.30;99.90
46231;DHT22;31949;51.404;-0.038;2023-07-31T14:44:45;18.40;99.90
46231;DHT22;31949;51.404;-0.038;2023-07-31T14:47:14;18.50;99.90
46231;DHT22;31949;51.404;-0.038;2023-07-31T14:49:41;18.60;99.90
46231;DHT22;31949;51.404;-0.038;2023-07-31T14:52:08;18.60;99.90
46231;DHT22;31949;51.404;-0.038;2023-07-31T14:54:36;18.60;99.90
46231;DHT22;31949;51.404;-0.038;2023-07-31T14:57:03;18.60;99.90
46231;DHT22;31949;51.404;-0.038;2023-07-31T14:59:31;18.50;99.90
46231;DHT22;31949;51.404;-0.038;2023-07-31T15:01:58;18.50;99.90
46231;DHT22;31949;51.404;-0.038;2023-07-31T15:04:26;18.60;99.90
46231;DHT22;31949;51.404;-0.038;2023-07-31T15:06:55;18.60;99.90
46231;DHT22;31949;51.404;-0.038;2023-07-31T15:09:22;18.70;99.90
46231;DHT22;31949;51.404;-0.038;2023-07-31T15:11:51;18.70;99.90
46231;DHT22;31949;51.404;-0.038;2023-07-31T15:14:26;18.80;99.90
46231;DHT22;31949;51.404;-0.038;2023-07-31T15:17:02;18.80;99.90
46231;DHT22;31949;51.404;-0.038;2023-07-31T15:19:29;18.90;99.90
46231;DHT22;31949;51.404;-0.038;2023-07-31T15:21:57;19.00;99.90
46231;DHT22;31949;51.404;-0.038;2023-07-31T15:24:24;19.10;99.90
46231;DHT22;31949;51.404;-0.038;2023-07-31T15:26:51;19.30;99.90
46231;DHT22;31949;51.404;-0.038;2023-07-31T15:29:19;19.30;99.90
46231;DHT22;31949;51.404;-0.038;2023-07-31T15:31:47;19.30;99.90
46231;DHT22;31949;51.404;-0.038;2023-07-31T15:34:15;19.30;99.90
46231;DHT22;31949;51.404;-0.038;2023-07-31T15:36:43;19.30;99.90
46231;DHT22;31949;51.404;-0.038;2023-07-31T15:39:10;19.30;99.90
46231;DHT22;31949;51.404;-0.038;2023-07-31T15:41:38;19.40;99.90